YMA7560 WIPP-WADD
Flight info
| Callsign | YMA7560 |
|---|---|
| Flight time | N/A |
| Altitude | 31000 |
| Route | WIPP UDOK1A UDOKO T5 HLM T3 ANY G461 BA T3 MOVMO MOVM1E WADD |
| Aircraft | B738/M-ICAO/L |
Departure
| Time | 2026-04-24 09:46 |
|---|---|
| Airport | Sultan Mahmud Badaruddin II Airport (WIPP) |
Arrival
| Time | N/A |
|---|---|
| Airport | Denpasar I Gusti Ngurah Rai International Airport (WADD) |
| Time | Latitude | Longitude | Altitude | Speed | Heading |
|---|---|---|---|---|---|
| 2026-04-24 09:17 | -2.89450 | 104.70351 | 44 ft | 0 kts | 200° |
| 2026-04-24 09:23 | -2.89455 | 104.70349 | 43 ft | 2 kts | 200° |
| 2026-04-24 09:23 | -2.89457 | 104.70348 | 43 ft | 0 kts | 199° |
| 2026-04-24 09:31 | -2.89462 | 104.70348 | 43 ft | 3 kts | 174° |
| 2026-04-24 09:31 | -2.89552 | 104.70357 | 44 ft | 12 kts | 191° |
| 2026-04-24 09:31 | -2.89629 | 104.70330 | 45 ft | 9 kts | 201° |
| 2026-04-24 09:31 | -2.89686 | 104.70307 | 45 ft | 8 kts | 201° |
| 2026-04-24 09:32 | -2.89732 | 104.70279 | 44 ft | 7 kts | 235° |
| 2026-04-24 09:32 | -2.89733 | 104.70230 | 43 ft | 6 kts | 288° |
| 2026-04-24 09:32 | -2.89715 | 104.70182 | 43 ft | 7 kts | 291° |
| 2026-04-24 09:32 | -2.89692 | 104.70122 | 43 ft | 9 kts | 291° |
| 2026-04-24 09:33 | -2.89662 | 104.70046 | 42 ft | 12 kts | 291° |
| 2026-04-24 09:33 | -2.89627 | 104.69958 | 42 ft | 13 kts | 291° |
| 2026-04-24 09:33 | -2.89589 | 104.69865 | 43 ft | 14 kts | 293° |
| 2026-04-24 09:33 | -2.89548 | 104.69768 | 44 ft | 14 kts | 293° |
| 2026-04-24 09:34 | -2.89504 | 104.69666 | 45 ft | 15 kts | 293° |
| 2026-04-24 09:34 | -2.89456 | 104.69555 | 45 ft | 17 kts | 293° |
| 2026-04-24 09:34 | -2.89409 | 104.69437 | 47 ft | 16 kts | 290° |
| 2026-04-24 09:34 | -2.89371 | 104.69334 | 49 ft | 13 kts | 290° |
| 2026-04-24 09:35 | -2.89379 | 104.69269 | 52 ft | 7 kts | 210° |
| 2026-04-24 09:35 | -2.89414 | 104.69255 | 53 ft | 3 kts | 201° |
| 2026-04-24 09:35 | -2.89426 | 104.69250 | 54 ft | 0 kts | 201° |
| 2026-04-24 09:35 | -2.89427 | 104.69250 | 54 ft | 0 kts | 201° |
| 2026-04-24 09:44 | -2.89437 | 104.69246 | 54 ft | 5 kts | 201° |
| 2026-04-24 09:44 | -2.89466 | 104.69235 | 54 ft | 3 kts | 201° |
| 2026-04-24 09:44 | -2.89485 | 104.69232 | 54 ft | 2 kts | 167° |
| 2026-04-24 09:45 | -2.89497 | 104.69238 | 54 ft | 1 kts | 150° |
| 2026-04-24 09:45 | -2.89506 | 104.69245 | 54 ft | 1 kts | 136° |
| 2026-04-24 09:45 | -2.89507 | 104.69246 | 54 ft | 0 kts | 126° |
| 2026-04-24 09:45 | -2.89534 | 104.69299 | 53 ft | 40 kts | 114° |
| 2026-04-24 09:46 | -2.89775 | 104.69875 | 46 ft | 127 kts | 113° |
| 2026-04-24 09:46 | -2.90190 | 104.70850 | 663 ft | 135 kts | 112° |
| 2026-04-24 09:46 | -2.90543 | 104.71735 | 1265 ft | 149 kts | 112° |
| 2026-04-24 09:46 | -2.91021 | 104.72874 | 1676 ft | 173 kts | 112° |
| 2026-04-24 09:47 | -2.91368 | 104.73808 | 2899 ft | 141 kts | 109° |
| 2026-04-24 09:47 | -2.91623 | 104.74992 | 3155 ft | 173 kts | 101° |
| 2026-04-24 09:47 | -2.91967 | 104.76279 | 3651 ft | 196 kts | 107° |
| 2026-04-24 09:47 | -2.92425 | 104.77728 | 4306 ft | 215 kts | 108° |
| 2026-04-24 09:48 | -2.92935 | 104.79318 | 4978 ft | 236 kts | 108° |
| 2026-04-24 09:48 | -2.93499 | 104.81063 | 5626 ft | 258 kts | 108° |
| 2026-04-24 09:48 | -2.94100 | 104.82922 | 6499 ft | 271 kts | 108° |
| 2026-04-24 09:48 | -2.94710 | 104.84808 | 7497 ft | 277 kts | 108° |
| 2026-04-24 09:49 | -2.95478 | 104.86685 | 8502 ft | 282 kts | 121° |
| 2026-04-24 09:49 | -2.96684 | 104.88360 | 9521 ft | 286 kts | 127° |
| 2026-04-24 09:49 | -2.97948 | 104.90069 | 10517 ft | 291 kts | 126° |
| 2026-04-24 09:49 | -2.99202 | 104.91804 | 11494 ft | 295 kts | 126° |
| 2026-04-24 09:50 | -3.00482 | 104.93562 | 12470 ft | 299 kts | 126° |
| 2026-04-24 09:50 | -3.01771 | 104.95332 | 13435 ft | 304 kts | 126° |
| 2026-04-24 09:50 | -3.03090 | 104.97143 | 14405 ft | 308 kts | 126° |
| 2026-04-24 09:50 | -3.04426 | 104.98978 | 15362 ft | 312 kts | 126° |
| 2026-04-24 09:51 | -3.05777 | 105.00832 | 16296 ft | 317 kts | 126° |
| 2026-04-24 09:51 | -3.07119 | 105.02674 | 17183 ft | 321 kts | 126° |
| 2026-04-24 09:51 | -3.08496 | 105.04566 | 18055 ft | 326 kts | 126° |
| 2026-04-24 09:51 | -3.09902 | 105.06496 | 18906 ft | 330 kts | 126° |
| 2026-04-24 09:52 | -3.11321 | 105.08444 | 19729 ft | 334 kts | 126° |
| 2026-04-24 09:52 | -3.12758 | 105.10419 | 20529 ft | 338 kts | 126° |
| 2026-04-24 09:52 | -3.14216 | 105.12421 | 21304 ft | 342 kts | 126° |
| 2026-04-24 09:52 | -3.15688 | 105.14442 | 22051 ft | 346 kts | 126° |
| 2026-04-24 09:53 | -3.17197 | 105.16515 | 22785 ft | 350 kts | 126° |
| 2026-04-24 09:53 | -3.18745 | 105.18642 | 23505 ft | 354 kts | 126° |
| 2026-04-24 09:53 | -3.20278 | 105.20747 | 24188 ft | 358 kts | 126° |
| 2026-04-24 09:53 | -3.21845 | 105.22900 | 24857 ft | 362 kts | 126° |
| 2026-04-24 09:54 | -3.23436 | 105.25084 | 25507 ft | 366 kts | 126° |
| 2026-04-24 09:54 | -3.25118 | 105.27210 | 26130 ft | 370 kts | 131° |
| 2026-04-24 09:54 | -3.27063 | 105.29139 | 26731 ft | 373 kts | 139° |
| 2026-04-24 09:54 | -3.29172 | 105.30901 | 27319 ft | 376 kts | 140° |
| 2026-04-24 09:55 | -3.31315 | 105.32705 | 27889 ft | 380 kts | 140° |
| 2026-04-24 09:55 | -3.33476 | 105.34550 | 28445 ft | 383 kts | 140° |
| 2026-04-24 09:55 | -3.35651 | 105.36388 | 28981 ft | 387 kts | 140° |
| 2026-04-24 09:55 | -3.37840 | 105.38226 | 29499 ft | 390 kts | 140° |
| 2026-04-24 09:56 | -3.40015 | 105.40049 | 29994 ft | 393 kts | 140° |
| 2026-04-24 09:56 | -3.42225 | 105.41901 | 30480 ft | 396 kts | 140° |
| 2026-04-24 09:56 | -3.44433 | 105.43749 | 30928 ft | 399 kts | 140° |
| 2026-04-24 09:56 | -3.46674 | 105.45624 | 31004 ft | 408 kts | 140° |
| 2026-04-24 09:57 | -3.51320 | 105.49507 | 31000 ft | 429 kts | 140° |
| 2026-04-24 09:57 | -3.56248 | 105.53625 | 31000 ft | 449 kts | 140° |
| 2026-04-24 09:58 | -3.61342 | 105.57880 | 30999 ft | 465 kts | 140° |
| 2026-04-24 09:58 | -3.66602 | 105.62273 | 30999 ft | 467 kts | 140° |
| 2026-04-24 09:59 | -3.71874 | 105.66677 | 30999 ft | 465 kts | 140° |
| 2026-04-24 09:59 | -3.77114 | 105.71055 | 30999 ft | 467 kts | 140° |
| 2026-04-24 10:00 | -3.82382 | 105.75455 | 30999 ft | 466 kts | 140° |
| 2026-04-24 10:00 | -3.87583 | 105.79803 | 30999 ft | 465 kts | 140° |
| 2026-04-24 10:01 | -3.92806 | 105.84167 | 30999 ft | 465 kts | 140° |
| 2026-04-24 10:01 | -3.97757 | 105.88306 | 30943 ft | 466 kts | 139° |
| 2026-04-24 10:02 | -3.99657 | 105.89887 | 30797 ft | 462 kts | 139° |
| 2026-04-24 10:02 | -4.02263 | 105.92062 | 30807 ft | 457 kts | 139° |
| 2026-04-24 10:03 | -4.06104 | 105.95280 | 30804 ft | 460 kts | 139° |
| 2026-04-24 10:03 | -4.11336 | 105.99658 | 30804 ft | 462 kts | 139° |
| 2026-04-24 10:04 | -4.16570 | 106.04038 | 30804 ft | 461 kts | 139° |
| 2026-04-24 10:04 | -4.21746 | 106.08369 | 30804 ft | 461 kts | 139° |
| 2026-04-24 10:05 | -4.26958 | 106.12730 | 30804 ft | 461 kts | 139° |
| 2026-04-24 10:05 | -4.32174 | 106.17096 | 30804 ft | 461 kts | 139° |
| 2026-04-24 10:06 | -4.40100 | 106.23731 | 30841 ft | 461 kts | 139° |
| 2026-04-24 10:07 | -4.45350 | 106.28126 | 30868 ft | 461 kts | 139° |
| 2026-04-24 10:07 | -4.50539 | 106.32471 | 30885 ft | 461 kts | 139° |
| 2026-04-24 10:08 | -4.55763 | 106.36848 | 30885 ft | 461 kts | 139° |
| 2026-04-24 10:08 | -4.61065 | 106.41290 | 30885 ft | 461 kts | 139° |
| 2026-04-24 10:09 | -4.66373 | 106.45737 | 30885 ft | 461 kts | 139° |
| 2026-04-24 10:09 | -4.71691 | 106.50195 | 30885 ft | 461 kts | 139° |
| 2026-04-24 10:10 | -4.76118 | 106.53906 | 30885 ft | 461 kts | 139° |
| 2026-04-24 10:10 | -4.81428 | 106.58357 | 30885 ft | 461 kts | 140° |
| 2026-04-24 10:11 | -4.87283 | 106.62083 | 30884 ft | 463 kts | 156° |
| 2026-04-24 10:11 | -4.90607 | 106.63103 | 30886 ft | 465 kts | 167° |
| 2026-04-24 10:11 | -4.94134 | 106.63747 | 30885 ft | 465 kts | 169° |
| 2026-04-24 10:12 | -5.01042 | 106.65041 | 30885 ft | 466 kts | 167° |
| 2026-04-24 10:12 | -5.07942 | 106.66369 | 30885 ft | 467 kts | 168° |
| 2026-04-24 10:13 | -5.14877 | 106.67673 | 30885 ft | 469 kts | 168° |
| 2026-04-24 10:13 | -5.21770 | 106.68968 | 30885 ft | 469 kts | 168° |
| 2026-04-24 10:14 | -5.28717 | 106.70269 | 30885 ft | 469 kts | 168° |
| 2026-04-24 10:14 | -5.35732 | 106.71581 | 30885 ft | 469 kts | 168° |
| 2026-04-24 10:15 | -5.42680 | 106.72881 | 30885 ft | 469 kts | 168° |
| 2026-04-24 10:15 | -5.49581 | 106.74170 | 30885 ft | 469 kts | 168° |
| 2026-04-24 10:16 | -5.56451 | 106.75455 | 30885 ft | 469 kts | 168° |
| 2026-04-24 10:16 | -5.63280 | 106.76731 | 30885 ft | 469 kts | 168° |
| 2026-04-24 10:17 | -5.70053 | 106.77998 | 30885 ft | 469 kts | 168° |
| 2026-04-24 10:17 | -5.76870 | 106.79273 | 30885 ft | 469 kts | 168° |
| 2026-04-24 10:18 | -5.83837 | 106.80576 | 30885 ft | 469 kts | 168° |
| 2026-04-24 10:18 | -5.90696 | 106.81860 | 30885 ft | 469 kts | 168° |
| 2026-04-24 10:19 | -5.97563 | 106.83144 | 30885 ft | 469 kts | 168° |
| 2026-04-24 10:19 | -6.04377 | 106.84420 | 30885 ft | 469 kts | 168° |
| 2026-04-24 10:20 | -6.11241 | 106.85706 | 30885 ft | 469 kts | 168° |
| 2026-04-24 10:20 | -6.18063 | 106.87296 | 30884 ft | 467 kts | 158° |
| 2026-04-24 10:21 | -6.24094 | 106.90887 | 30886 ft | 463 kts | 137° |
| 2026-04-24 10:21 | -6.28515 | 106.96286 | 30884 ft | 459 kts | 117° |
| 2026-04-24 10:21 | -6.29801 | 106.99474 | 30886 ft | 458 kts | 106° |
| 2026-04-24 10:22 | -6.30669 | 107.02781 | 30885 ft | 458 kts | 103° |
| 2026-04-24 10:22 | -6.32397 | 107.09421 | 30885 ft | 458 kts | 104° |
| 2026-04-24 10:23 | -6.34158 | 107.16061 | 30885 ft | 457 kts | 104° |
| 2026-04-24 10:23 | -6.35885 | 107.22726 | 30885 ft | 457 kts | 103° |
| 2026-04-24 10:24 | -6.37618 | 107.29450 | 30885 ft | 458 kts | 103° |
| 2026-04-24 10:24 | -6.39337 | 107.36149 | 30885 ft | 458 kts | 103° |
| 2026-04-24 10:25 | -6.41028 | 107.42754 | 30885 ft | 457 kts | 103° |
| 2026-04-24 10:25 | -6.42737 | 107.49442 | 30885 ft | 457 kts | 103° |
| 2026-04-24 10:26 | -6.44438 | 107.56107 | 30885 ft | 457 kts | 103° |
| 2026-04-24 10:26 | -6.46123 | 107.62712 | 30885 ft | 457 kts | 103° |
| 2026-04-24 10:27 | -6.47834 | 107.69426 | 30885 ft | 457 kts | 103° |
| 2026-04-24 10:27 | -6.49547 | 107.76150 | 30885 ft | 457 kts | 103° |
| 2026-04-24 10:28 | -6.51237 | 107.82791 | 30885 ft | 457 kts | 103° |
| 2026-04-24 10:28 | -6.52929 | 107.89440 | 30885 ft | 457 kts | 103° |
| 2026-04-24 10:29 | -6.54624 | 107.96108 | 30885 ft | 457 kts | 103° |
| 2026-04-24 10:29 | -6.56324 | 108.02799 | 30885 ft | 458 kts | 103° |
| 2026-04-24 10:30 | -6.58005 | 108.09419 | 30885 ft | 458 kts | 103° |
| 2026-04-24 10:30 | -6.59689 | 108.16052 | 30885 ft | 458 kts | 103° |
| 2026-04-24 10:31 | -6.61357 | 108.22629 | 30885 ft | 458 kts | 103° |
| 2026-04-24 10:31 | -6.63018 | 108.29184 | 30885 ft | 457 kts | 103° |
| 2026-04-24 10:32 | -6.64677 | 108.35729 | 30885 ft | 457 kts | 103° |
| 2026-04-24 10:32 | -6.66342 | 108.42307 | 30885 ft | 457 kts | 103° |
| 2026-04-24 10:33 | -6.68027 | 108.48966 | 30885 ft | 458 kts | 103° |
| 2026-04-24 10:33 | -6.69692 | 108.55577 | 30885 ft | 457 kts | 102° |
| 2026-04-24 10:34 | -6.70822 | 108.62330 | 30885 ft | 457 kts | 97° |
| 2026-04-24 10:34 | -6.71821 | 108.69070 | 30885 ft | 457 kts | 98° |
| 2026-04-24 10:35 | -6.72861 | 108.75830 | 30885 ft | 457 kts | 98° |
| 2026-04-24 10:35 | -6.73894 | 108.82590 | 30885 ft | 457 kts | 98° |
| 2026-04-24 10:36 | -6.74913 | 108.89248 | 30885 ft | 457 kts | 98° |